aviador You're here:

CYHE Decoded Metar

HOPE in BC, CANADA
Report Time2018-07-23 15:00:00
UTC Time2018-07-23 15:45:32
Flight Rules vfr VFR
Wind080° at 06 kt
W.Decomp.*RWY 07: 6.0 kt HW 0.7 kt LCW
W.Rank080° ranks 9
Current wind is above 080° avg. (5.6)
Visibility9999 m
Phenomena:N/A
Clouds:N/A
Expected CloudBase > 3,600 ft AGL from Temp-Dew spread
CeilingNone
Temp20°C (ISA +5)
Dew Point11°C (56% RH)
AAT18.1°C
QNH1021 hPa
Density Alt650 ft
Elevation128 ft
Report Wrong Elevation
Raw Report
CYHE 231500Z AUTO 08006KT 040V110 9SM CLR 20/11 A3014 RMK SLP207
DENSITY ALT 400FT=

Extra information for CYHE:More info

Metar Taf Metar & Taf Last 4 Metars F.Rules Stats Wind Profile Meteogram Temp Stats Airport Information Weather charts Add Link Nearby VenuesMetar ALERT Operation Metar Decoded Social comments